Haines, AK

2:48 AM AKST on December 07, 2016 (GMT -0900)
Letnikof Cove | | Change Station

Elev 230 ft 59.17 °N, 135.39 °W | Updated 12 seconds ago

Light Snow
Light Snow
15.4 °F
Feels Like 10 °F
N
3.4
Wind Variable Wind from NW
Gusts 5.8 mph

Today
High -- | Low -- °F
--% Chance of Precip.
Yesterday
High -- | Low -- °F
Precip. -- in
Pressure 30.45 in
Visibility 1.5 miles
Clouds Overcast 2600 ft
Windchill 10 °F
Dew Point 8 °F
Humidity 73%
Rainfall 0.00 in
Snow Depth Not available.
8:42 AM 3:04 PM
First Quarter, 51% visible
SPECI PAHN 071128Z AUTO 29012KT 1 1/2SM -SN OVC026 M11/M13 A3045 RMK AO2 P0000 T11061133 TSNO
Pressure 30.45 in
Visibility 1.5 miles
Clouds Overcast 2600 ft
Windchill 10 °F
Dew Point 8 °F
Humidity 73%
Rainfall 0.00 in
Snow Depth Not available.
8:42 AM 3:04 PM
First Quarter, 51% visible
SPECI PAHN 071128Z AUTO 29012KT 1 1/2SM -SN OVC026 M11/M13 A3045 RMK AO2 P0000 T11061133 TSNO

10-Day Weather Forecast

Almanac

Astronomy

Dec. 07, 2016 Rise Set
Actual Time
Civil Twilight
Nautical Twilight
Astronomical Twilight
Moon
Length of Visible Light
Length of Day
Tomorrow will be .
, % of the Moon is Illuminated

Today's Extremes

State Highs State Lows

Community

WunderPhotos

Upload Photos

1,956,111 photos uploaded!

WunderBlog® & News

Nearby

Air Quality

  Air Quality AQ Index Pollutant
Not available.

Snow Depth

Station Depth Elevation

Earthquake Activity

City Distance Mag. Time & Date
Minimum magnitude displayed is 2.5.

Coastal Water Temperatures

Place Temperature

Stations

Nearby Weather Stations

Station Location Temp. Windchill Dew Point Humidity Wind Precip. Elev Updated Type
                   

Watches & Warnings

There are currently no watches in effect.